Time;durP1;ratioP1;P1;durP2;ratioP2;P2;SDS_P1;SDS_P2;PMS_P1;PMS_P2;Temp;Humidity;BMP_temperature;BMP_pressure;BME280_temperature;BME280_humidity;BME280_pressure;Samples;Min_cycle;Max_cycle;Signal;HPM_P1;HPM_P2
2021/03/25 00:00:40;;;;;;;;;;;;;;;21.02;48.14;101521.63;2113093;28;1242;-29
2021/03/25 00:01:40;;;;;;;;;;;;;;;21.02;48.31;101525.31;2114746;28;2086;-28
2021/03/25 00:02:41;;;;;;;;;;;;;;;21.02;48.35;101531.00;2111494;28;2556;-33
2021/03/25 00:03:42;;;;;;;;;;;;;;;21.01;48.20;101526.50;2114206;28;2256;-31
2021/03/25 00:04:44;;;;;;;;;;;;;;;21.00;48.16;101535.34;2113675;28;1585;-35
2021/03/25 00:05:45;;;;;;;;;;;;;;;20.99;48.36;101528.84;2115302;28;1762;-36
2021/03/25 00:06:46;;;;;;;;;;;;;;;21.00;48.34;101529.66;2114775;28;1983;-30
2021/03/25 00:07:46;;;;;;;;;;;;;;;21.00;48.20;101530.50;2114040;28;2379;-31
2021/03/25 00:08:55;;;;;;;;;;;;;;;21.00;48.10;101530.50;2115306;28;1230;-33
2021/03/25 00:09:55;;;;;;;;;;;;;;;21.00;48.14;101523.97;2112974;28;1181;-30
2021/03/25 00:10:56;;;;;;;;;;;;;;;21.01;48.23;101526.50;2115295;28;1607;-31
2021/03/25 00:11:57;;;;;;;;;;;;;;;21.01;48.17;101522.81;2111591;28;2178;-33
2021/03/25 00:12:57;;;;;;;;;;;;;;;21.00;48.25;101521.97;2111821;28;2541;-30
2021/03/25 00:13:58;;;;;;;;;;;;;;;21.02;48.15;101521.63;2115294;28;1501;-33
2021/03/25 00:14:59;;;;;;;;;;;;;;;21.01;48.02;101525.66;2115361;28;1131;-32
2021/03/25 00:16:00;;;;;;;;;;;;;;;21.02;48.26;101518.78;2115354;28;1365;-29
2021/03/25 00:17:00;;;;;;;;;;;;;;;21.02;48.26;101522.47;2113354;28;2172;-32
2021/03/25 00:18:01;;;;;;;;;;;;;;;21.02;48.27;101515.94;2115117;28;1914;-33
2021/03/25 00:19:02;;;;;;;;;;;;;;;21.02;48.11;101521.63;2115236;28;1556;-30
2021/03/25 00:20:03;;;;;;;;;;;;;;;21.02;48.13;101510.25;2115102;28;1388;-31
2021/03/25 00:21:04;;;;;;;;;;;;;;;21.02;48.09;101513.94;2113209;28;1499;-31
2021/03/25 00:22:05;;;;;;;;;;;;;;;21.02;48.18;101513.09;2113251;28;1987;-33
2021/03/25 00:23:06;;;;;;;;;;;;;;;21.02;48.27;101516.78;2111807;28;1138;-35
2021/03/25 00:24:06;;;;;;;;;;;;;;;21.02;48.15;101511.09;2115279;28;1074;-31
2021/03/25 00:25:07;;;;;;;;;;;;;;;21.02;48.10;101513.09;2115201;28;1933;-29
2021/03/25 00:26:08;;;;;;;;;;;;;;;21.02;48.09;101510.25;2115391;28;1200;-32
2021/03/25 00:27:08;;;;;;;;;;;;;;;21.02;48.06;101508.25;2111811;28;2086;-32
2021/03/25 00:28:09;;;;;;;;;;;;;;;21.01;48.23;101503.75;2111745;28;1255;-32
2021/03/25 00:29:10;;;;;;;;;;;;;;;21.02;48.06;101510.25;2114948;28;1076;-28
2021/03/25 00:30:11;;;;;;;;;;;;;;;21.01;47.97;101503.75;2115330;28;1612;-30
2021/03/25 00:31:11;;;;;;;;;;;;;;;21.03;48.11;101503.38;2114841;28;1133;-31
2021/03/25 00:32:12;;;;;;;;;;;;;;;21.03;48.20;101511.91;2112307;28;2118;-34
2021/03/25 00:33:13;;;;;;;;;;;;;;;21.03;48.15;101503.38;2113556;28;2257;-33
2021/03/25 00:34:15;;;;;;;;;;;;;;;21.02;48.12;101502.56;2114502;28;1108;-31
2021/03/25 00:35:16;;;;;;;;;;;;;;;21.03;48.08;101509.06;2115125;28;1635;-32
2021/03/25 00:36:16;;;;;;;;;;;;;;;21.03;48.24;101509.06;2114964;28;2754;-29
2021/03/25 00:37:17;;;;;;;;;;;;;;;21.03;48.16;101506.22;2112336;28;2187;-34
2021/03/25 00:38:18;;;;;;;;;;;;;;;21.02;48.16;101498.88;2110407;28;1889;-30
2021/03/25 00:39:19;;;;;;;;;;;;;;;21.03;48.13;101503.38;2114234;28;1832;-32
2021/03/25 00:40:20;;;;;;;;;;;;;;;21.04;48.34;101499.38;2113547;28;2187;-30
2021/03/25 00:41:20;;;;;;;;;;;;;;;21.04;48.30;101505.06;2115398;28;1405;-31
2021/03/25 00:42:21;;;;;;;;;;;;;;;21.04;48.14;101502.22;2114625;28;1335;-34
2021/03/25 00:43:22;;;;;;;;;;;;;;;21.04;48.27;101499.38;2115005;28;1637;-28
2021/03/25 00:44:23;;;;;;;;;;;;;;;21.03;48.35;101500.53;2115211;28;1537;-34
2021/03/25 00:45:23;;;;;;;;;;;;;;;21.03;48.18;101504.22;2110843;28;2139;-32
2021/03/25 00:46:24;;;;;;;;;;;;;;;21.03;48.36;101495.69;2112872;28;1603;-31
2021/03/25 00:47:25;;;;;;;;;;;;;;;21.04;48.21;101502.22;2113599;28;2226;-30
2021/03/25 00:48:26;;;;;;;;;;;;;;;21.04;48.29;101499.38;2114783;28;1219;-31
2021/03/25 00:49:27;;;;;;;;;;;;;;;21.03;47.96;101494.84;2114869;28;1318;-35
2021/03/25 00:50:28;;;;;;;;;;;;;;;21.03;48.27;101495.69;2114744;28;2001;-28
2021/03/25 00:51:28;;;;;;;;;;;;;;;21.04;48.22;101499.38;2113225;28;1119;-33
2021/03/25 00:52:29;;;;;;;;;;;;;;;21.03;48.32;101501.38;2114671;28;1232;-32
2021/03/25 00:53:30;;;;;;;;;;;;;;;21.03;48.21;101498.53;2115567;28;1097;-32
2021/03/25 00:54:31;;;;;;;;;;;;;;;21.04;48.29;101496.53;2114779;28;1592;-31
2021/03/25 00:55:31;;;;;;;;;;;;;;;21.04;48.24;101488.84;2113290;28;2072;-32
2021/03/25 00:56:32;;;;;;;;;;;;;;;21.04;48.23;101496.53;2114865;28;1978;-35
2021/03/25 00:57:33;;;;;;;;;;;;;;;21.04;48.39;101496.53;2114956;27;1862;-32
2021/03/25 00:58:34;;;;;;;;;;;;;;;21.04;48.44;101497.38;2113915;28;2103;-31
2021/03/25 00:59:34;;;;;;;;;;;;;;;21.04;48.41;101497.38;2115299;28;1562;-34
2021/03/25 01:00:35;;;;;;;;;;;;;;;21.05;48.26;101492.50;2115099;28;1242;-30
2021/03/25 01:01:36;;;;;;;;;;;;;;;21.05;48.41;101495.34;2114933;28;1117;-34
2021/03/25 01:02:37;;;;;;;;;;;;;;;21.05;48.34;101489.66;2114871;28;1185;-32
2021/03/25 01:03:39;;;;;;;;;;;;;;;21.04;48.43;101494.53;2111192;28;2243;-31
2021/03/25 01:04:39;;;;;;;;;;;;;;;21.05;48.44;101492.50;2111181;28;1067;-33
2021/03/25 01:05:40;;;;;;;;;;;;;;;21.04;48.43;101494.53;2115014;28;1222;-29
2021/03/25 01:06:41;;;;;;;;;;;;;;;21.05;48.34;101498.19;2114800;28;1212;-33
2021/03/25 01:07:42;;;;;;;;;;;;;;;21.04;48.47;101493.69;2113713;28;2021;-33
2021/03/25 01:08:42;;;;;;;;;;;;;;;21.04;48.42;101497.38;2114307;28;2409;-33
2021/03/25 01:09:43;;;;;;;;;;;;;;;21.05;48.37;101495.34;2109240;28;3483;-30
2021/03/25 01:10:44;;;;;;;;;;;;;;;21.04;48.47;101499.38;2114883;28;1616;-31
2021/03/25 01:11:44;;;;;;;;;;;;;;;21.04;48.45;101503.06;2115124;28;1959;-37
2021/03/25 01:12:45;;;;;;;;;;;;;;;21.05;48.44;101498.19;2113620;28;2209;-34
2021/03/25 01:13:46;;;;;;;;;;;;;;;21.04;48.46;101497.38;2112117;28;1644;-33
2021/03/25 01:14:47;;;;;;;;;;;;;;;21.04;48.40;101494.53;2115098;28;1125;-31
2021/03/25 01:15:47;;;;;;;;;;;;;;;21.06;48.40;101502.72;2115319;28;1571;-35
2021/03/25 01:16:48;;;;;;;;;;;;;;;21.05;48.51;101498.19;2114849;28;1579;-32
2021/03/25 01:17:49;;;;;;;;;;;;;;;21.05;48.41;101501.88;2113912;28;2236;-32
2021/03/25 01:18:50;;;;;;;;;;;;;;;21.06;48.50;101502.72;2111391;28;1914;-30
2021/03/25 01:19:51;;;;;;;;;;;;;;;21.05;48.51;101501.88;2115502;28;1109;-31
2021/03/25 01:20:51;;;;;;;;;;;;;;;21.05;48.62;101499.03;2107084;28;1175;-33
2021/03/25 01:21:52;;;;;;;;;;;;;;;21.06;48.55;101500.72;2114702;28;1619;-32
2021/03/25 01:22:53;;;;;;;;;;;;;;;21.06;48.54;101499.88;2100130;28;2347;-34
2021/03/25 01:23:53;;;;;;;;;;;;;;;21.06;48.52;101494.16;2105041;28;1773;-29
2021/03/25 01:24:54;;;;;;;;;;;;;;;21.07;48.58;101498.72;2114009;28;1866;-35
2021/03/25 01:25:55;;;;;;;;;;;;;;;21.06;48.58;101500.72;2114566;28;1441;-33
2021/03/25 01:26:56;;;;;;;;;;;;;;;21.07;48.51;101498.72;2114650;28;2058;-34
2021/03/25 01:27:56;;;;;;;;;;;;;;;21.06;48.58;101492.19;2113633;28;2112;-33
2021/03/25 01:29:00;;;;;;;;;;;;;;;21.06;48.62;101497.88;2114876;28;1181;-32
2021/03/25 01:30:01;;;;;;;;;;;;;;;21.07;48.85;101501.56;2112888;28;1245;-34
2021/03/25 01:31:02;;;;;;;;;;;;;;;21.08;48.71;101497.53;2113278;28;1731;-34
2021/03/25 01:32:03;;;;;;;;;;;;;;;21.06;48.68;101503.56;2114952;28;1646;-30
2021/03/25 01:33:05;;;;;;;;;;;;;;;21.06;48.78;101497.03;2112921;28;2202;-35
2021/03/25 01:34:06;;;;;;;;;;;;;;;21.07;48.69;101507.25;2114802;28;1173;-31
2021/03/25 01:35:07;;;;;;;;;;;;;;;21.07;48.78;101499.53;2114865;28;1597;-34
2021/03/25 01:36:08;;;;;;;;;;;;;;;21.06;48.82;101500.72;2115012;28;1171;-37
2021/03/25 01:37:09;;;;;;;;;;;;;;;21.06;48.68;101497.88;2114418;28;2920;-32
2021/03/25 01:38:09;;;;;;;;;;;;;;;21.07;48.69;101498.72;2112927;28;2020;-32
2021/03/25 01:39:10;;;;;;;;;;;;;;;21.06;48.68;101499.88;2115379;28;1909;-32
2021/03/25 01:40:11;;;;;;;;;;;;;;;21.06;48.81;101503.56;2114676;28;1610;-30
2021/03/25 01:41:12;;;;;;;;;;;;;;;21.07;48.69;101493.03;2115419;28;1172;-29
2021/03/25 01:42:12;;;;;;;;;;;;;;;21.06;48.72;101491.34;2113393;28;1027;-32
2021/03/25 01:43:13;;;;;;;;;;;;;;;21.07;48.74;101493.03;2113849;28;2063;-36
2021/03/25 01:44:15;;;;;;;;;;;;;;;21.06;48.76;101500.72;2116275;28;1116;-34
2021/03/25 01:45:15;;;;;;;;;;;;;;;21.06;48.71;101497.88;2116348;28;1701;-33
2021/03/25 01:46:16;;;;;;;;;;;;;;;21.06;48.73;101499.88;2114490;28;2003;-30
2021/03/25 01:47:17;;;;;;;;;;;;;;;21.06;48.68;101495.03;2116770;28;1082;-32
2021/03/25 01:48:18;;;;;;;;;;;;;;;21.06;48.68;101497.88;2114656;28;1563;-30
2021/03/25 01:49:19;;;;;;;;;;;;;;;21.07;48.82;101493.03;2116337;28;1497;-33
2021/03/25 01:50:20;;;;;;;;;;;;;;;21.07;48.63;101493.03;2113354;27;1823;-33
2021/03/25 01:51:22;;;;;;;;;;;;;;;21.07;48.69;101498.72;2114872;28;2169;-34
2021/03/25 01:52:22;;;;;;;;;;;;;;;21.06;48.83;101488.47;2107881;28;2363;-33
2021/03/25 01:53:24;;;;;;;;;;;;;;;21.07;48.79;101495.88;2116567;28;1330;-31
2021/03/25 01:54:24;;;;;;;;;;;;;;;21.06;48.64;101489.34;2116016;28;1243;-31
2021/03/25 01:55:25;;;;;;;;;;;;;;;21.06;48.79;101492.19;2116477;28;1198;-33
2021/03/25 01:56:26;;;;;;;;;;;;;;;21.07;48.80;101487.34;2113686;28;2140;-33
2021/03/25 01:57:26;;;;;;;;;;;;;;;21.06;48.85;101486.50;2116346;28;1544;-34
2021/03/25 01:58:27;;;;;;;;;;;;;;;21.06;48.91;101492.19;2115992;28;1977;-32
2021/03/25 01:59:28;;;;;;;;;;;;;;;21.07;48.71;101490.19;2110890;28;1457;-31
2021/03/25 02:00:29;;;;;;;;;;;;;;;21.07;48.66;101493.84;2115893;28;1272;-32
2021/03/25 02:01:29;;;;;;;;;;;;;;;21.07;48.63;101493.03;2109738;28;2121;-35
2021/03/25 02:02:30;;;;;;;;;;;;;;;21.07;48.65;101487.34;2111494;28;1214;-29
2021/03/25 02:03:31;;;;;;;;;;;;;;;21.07;48.83;101488.16;2116437;28;1157;-32
2021/03/25 02:04:32;;;;;;;;;;;;;;;21.06;48.65;101486.50;2115864;28;1317;-35
2021/03/25 02:05:32;;;;;;;;;;;;;;;21.07;48.84;101484.47;2116015;28;1537;-31
2021/03/25 02:06:33;;;;;;;;;;;;;;;21.06;48.82;101480.81;2108666;28;2051;-31
2021/03/25 02:07:34;;;;;;;;;;;;;;;21.07;48.86;101487.34;2114508;28;2309;-33
2021/03/25 02:08:34;;;;;;;;;;;;;;;21.08;48.77;101480.44;2116042;28;1158;-38
2021/03/25 02:09:35;;;;;;;;;;;;;;;21.07;48.64;101484.47;2110567;28;3392;-34
2021/03/25 02:10:36;;;;;;;;;;;;;;;21.07;48.64;101485.31;2115997;28;1492;-31
2021/03/25 02:11:37;;;;;;;;;;;;;;;21.08;48.71;101486.16;2108810;28;2131;-30
2021/03/25 02:12:37;;;;;;;;;;;;;;;21.08;48.81;101477.63;2113218;28;2061;-31
2021/03/25 02:13:38;;;;;;;;;;;;;;;21.07;48.79;101478.78;2115658;28;1128;-29
2021/03/25 02:14:39;;;;;;;;;;;;;;;21.08;48.69;101477.63;2116638;28;1174;-36
2021/03/25 02:15:39;;;;;;;;;;;;;;;21.08;48.82;101477.63;2115999;28;1451;-30
2021/03/25 02:16:40;;;;;;;;;;;;;;;21.07;48.70;101478.78;2115079;28;2121;-29
2021/03/25 02:17:41;;;;;;;;;;;;;;;21.06;48.73;101475.13;2116284;28;1171;-35
2021/03/25 02:18:42;;;;;;;;;;;;;;;21.04;48.74;101477.47;2116287;28;1910;-34
2021/03/25 02:19:44;;;;;;;;;;;;;;;21.05;48.63;101481.97;2116208;28;1244;-30
2021/03/25 02:20:45;;;;;;;;;;;;;;;21.05;48.59;101486.81;2116419;28;1515;-34
2021/03/25 02:21:46;;;;;;;;;;;;;;;21.04;48.65;101486.00;2115063;28;2212;-36
2021/03/25 02:22:47;;;;;;;;;;;;;;;21.05;48.65;101481.13;2115807;28;2338;-34
2021/03/25 02:23:48;;;;;;;;;;;;;;;21.04;48.66;101477.47;2114159;28;1861;-31
2021/03/25 02:24:48;;;;;;;;;;;;;;;21.05;48.75;101478.28;2116096;28;1646;-31
2021/03/25 02:25:49;;;;;;;;;;;;;;;21.04;48.63;101485.16;2115073;28;2090;-36
2021/03/25 02:26:50;;;;;;;;;;;;;;;21.03;48.57;101481.47;2112288;28;1484;-30
2021/03/25 02:27:50;;;;;;;;;;;;;;;21.04;48.68;101479.47;2114273;28;1571;-33
2021/03/25 02:28:51;;;;;;;;;;;;;;;21.03;48.72;101484.31;2114684;28;1939;-31
2021/03/25 02:29:52;;;;;;;;;;;;;;;21.03;48.64;101477.78;2113248;28;1832;-33
2021/03/25 02:30:53;;;;;;;;;;;;;;;21.03;48.28;101477.78;2113656;28;2063;-29
2021/03/25 02:31:54;;;;;;;;;;;;;;;21.02;48.52;101476.94;2114022;28;1128;-33
2021/03/25 02:32:55;;;;;;;;;;;;;;;21.03;48.55;101477.78;2114466;28;2216;-31
2021/03/25 02:33:56;;;;;;;;;;;;;;;21.03;48.53;101477.78;2114208;28;1354;-29
2021/03/25 02:34:57;;;;;;;;;;;;;;;21.02;48.52;101476.13;2115735;28;1117;-33
2021/03/25 02:35:57;;;;;;;;;;;;;;;21.02;48.58;101470.44;2113771;28;2015;-34
2021/03/25 02:36:58;;;;;;;;;;;;;;;21.02;48.52;101470.44;2115299;28;2556;-32
2021/03/25 02:37:59;;;;;;;;;;;;;;;21.03;48.57;101474.94;2115886;28;1215;-31
2021/03/25 02:39:00;;;;;;;;;;;;;;;21.02;48.47;101476.94;2115945;28;1902;-34
2021/03/25 02:40:00;;;;;;;;;;;;;;;21.02;48.47;101464.75;2115822;28;1153;-33
2021/03/25 02:41:01;;;;;;;;;;;;;;;21.02;48.58;101470.44;2113961;28;2185;-33
2021/03/25 02:42:02;;;;;;;;;;;;;;;21.01;48.54;101463.91;2115830;28;1163;-31
2021/03/25 02:43:03;;;;;;;;;;;;;;;21.01;48.59;101472.44;2116149;28;1273;-30
2021/03/25 02:44:03;;;;;;;;;;;;;;;21.01;48.44;101468.78;2115636;28;1482;-31
2021/03/25 02:45:04;;;;;;;;;;;;;;;21.01;48.65;101468.78;2115928;28;1301;-32
2021/03/25 02:46:05;;;;;;;;;;;;;;;21.01;48.63;101474.47;2114695;28;2171;-34
2021/03/25 02:47:08;;;;;;;;;;;;;;;21.01;48.57;101463.09;2116138;28;1175;-31
2021/03/25 02:48:09;;;;;;;;;;;;;;;21.01;48.54;101468.78;2115760;28;1227;-31
2021/03/25 02:49:10;;;;;;;;;;;;;;;21.01;48.60;101465.94;2115985;28;1319;-37
2021/03/25 02:50:11;;;;;;;;;;;;;;;20.99;48.45;101466.25;2112963;28;1152;-33
2021/03/25 02:51:12;;;;;;;;;;;;;;;21.00;48.46;101467.09;2114211;28;2215;-32
2021/03/25 02:52:13;;;;;;;;;;;;;;;21.00;48.52;101467.09;2115871;28;1078;-33
2021/03/25 02:53:14;;;;;;;;;;;;;;;21.00;48.54;101469.94;2116002;28;1584;-31
2021/03/25 02:54:15;;;;;;;;;;;;;;;20.99;48.60;101466.25;2115710;28;1352;-30
2021/03/25 02:55:16;;;;;;;;;;;;;;;20.99;48.57;101469.09;2115791;28;1123;-33
2021/03/25 02:56:17;;;;;;;;;;;;;;;21.01;48.42;101463.09;2113618;28;2107;-31
2021/03/25 02:57:17;;;;;;;;;;;;;;;20.99;48.59;101474.78;2116031;28;1046;-36
2021/03/25 02:58:18;;;;;;;;;;;;;;;20.99;48.55;101466.25;2115901;28;1508;-32
2021/03/25 02:59:20;;;;;;;;;;;;;;;20.99;48.44;101471.13;2114176;28;1918;-31
2021/03/25 03:00:21;;;;;;;;;;;;;;;20.99;48.45;101471.13;2115857;28;1191;-30
2021/03/25 03:01:21;;;;;;;;;;;;;;;20.99;48.58;101477.63;2114688;28;2155;-32
2021/03/25 03:02:22;;;;;;;;;;;;;;;20.99;48.67;101471.13;2115409;28;1997;-33
2021/03/25 03:03:23;;;;;;;;;;;;;;;20.99;48.55;101469.09;2115525;28;1635;-32
2021/03/25 03:04:24;;;;;;;;;;;;;;;21.00;48.39;101475.63;2115795;28;1297;-32
2021/03/25 03:05:25;;;;;;;;;;;;;;;20.98;48.57;101473.13;2114263;28;2214;-30
2021/03/25 03:06:26;;;;;;;;;;;;;;;20.98;48.52;101475.09;2111768;28;2564;-32
2021/03/25 03:07:27;;;;;;;;;;;;;;;20.99;48.47;101482.50;2112940;28;1332;-34
2021/03/25 03:08:28;;;;;;;;;;;;;;;20.97;48.40;101473.44;2115517;28;1185;-34
2021/03/25 03:09:28;;;;;;;;;;;;;;;20.98;48.57;101475.09;2110388;28;3020;-29
2021/03/25 03:10:29;;;;;;;;;;;;;;;20.97;48.45;101479.13;2109533;28;2107;-30
2021/03/25 03:11:30;;;;;;;;;;;;;;;20.98;48.48;101475.09;2111101;28;1141;-34
2021/03/25 03:12:31;;;;;;;;;;;;;;;20.98;48.59;101469.41;2114363;28;1878;-33
2021/03/25 03:13:31;;;;;;;;;;;;;;;20.98;48.46;101475.09;2115267;28;1094;-35
2021/03/25 03:14:32;;;;;;;;;;;;;;;20.98;48.58;101480.81;2115335;28;1186;-32
2021/03/25 03:15:33;;;;;;;;;;;;;;;20.97;48.61;101473.44;2114304;28;2237;-31
2021/03/25 03:16:34;;;;;;;;;;;;;;;20.96;48.51;101472.63;2114906;28;2518;-30
2021/03/25 03:17:34;;;;;;;;;;;;;;;20.97;48.49;101467.75;2110549;28;1210;-31
2021/03/25 03:18:35;;;;;;;;;;;;;;;20.96;48.48;101469.78;2115778;28;1651;-31
2021/03/25 03:19:36;;;;;;;;;;;;;;;20.96;48.34;101466.94;2115320;28;1918;-32
2021/03/25 03:20:37;;;;;;;;;;;;;;;20.97;48.38;101467.75;2114916;28;2115;-30
2021/03/25 03:21:38;;;;;;;;;;;;;;;20.97;48.37;101467.75;2109781;28;1536;-30
2021/03/25 03:22:38;;;;;;;;;;;;;;;20.98;48.52;101472.25;2114793;28;1584;-32
2021/03/25 03:23:39;;;;;;;;;;;;;;;20.98;48.49;101475.09;2115110;28;1911;-33
2021/03/25 03:24:40;;;;;;;;;;;;;;;20.97;48.45;101473.44;2114312;28;1219;-34
2021/03/25 03:25:41;;;;;;;;;;;;;;;20.96;48.30;101475.47;2114495;28;2106;-31
2021/03/25 03:26:41;;;;;;;;;;;;;;;20.96;48.45;101478.31;2114634;28;1539;-32
2021/03/25 03:27:42;;;;;;;;;;;;;;;20.97;48.42;101473.44;2116139;28;1171;-31
2021/03/25 03:28:43;;;;;;;;;;;;;;;20.97;48.38;101471.44;2115453;28;1583;-33
2021/03/25 03:29:44;;;;;;;;;;;;;;;20.97;48.28;101481.97;2115419;28;1399;-34
2021/03/25 03:30:44;;;;;;;;;;;;;;;20.97;48.27;101474.28;2114058;28;2186;-31
2021/03/25 03:31:45;;;;;;;;;;;;;;;20.96;48.44;101477.47;2112204;28;1456;-32
2021/03/25 03:32:46;;;;;;;;;;;;;;;20.95;48.53;101472.94;2115007;28;1461;-30
2021/03/25 03:33:47;;;;;;;;;;;;;;;20.95;48.39;101476.66;2109325;28;2198;-30
2021/03/25 03:34:48;;;;;;;;;;;;;;;20.95;48.43;101476.66;2114854;28;1570;-32
2021/03/25 03:35:49;;;;;;;;;;;;;;;20.96;48.44;101477.47;2115837;28;1142;-34
2021/03/25 03:36:50;;;;;;;;;;;;;;;20.95;48.30;101479.50;2113969;28;2657;-31
2021/03/25 03:37:50;;;;;;;;;;;;;;;20.95;48.32;101479.50;2115458;28;1380;-38
2021/03/25 03:38:51;;;;;;;;;;;;;;;20.97;48.27;101484.81;2114693;28;2179;-33
2021/03/25 03:39:52;;;;;;;;;;;;;;;20.95;48.43;101479.50;2113404;28;1833;-32
2021/03/25 03:40:53;;;;;;;;;;;;;;;20.95;48.44;101475.78;2114512;28;1348;-35
2021/03/25 03:41:53;;;;;;;;;;;;;;;20.95;48.39;101478.63;2113725;28;1770;-32
2021/03/25 03:42:54;;;;;;;;;;;;;;;20.95;48.20;101475.78;2115191;28;1233;-31
2021/03/25 03:43:55;;;;;;;;;;;;;;;20.95;48.42;101473.81;2114279;28;2062;-32
2021/03/25 03:44:56;;;;;;;;;;;;;;;20.94;48.24;101466.44;2115126;28;1515;-32
2021/03/25 03:45:56;;;;;;;;;;;;;;;20.95;48.35;101475.78;2115217;28;1744;-29
2021/03/25 03:46:57;;;;;;;;;;;;;;;20.95;48.23;101475.78;2111766;28;2142;-30
2021/03/25 03:47:58;;;;;;;;;;;;;;;20.94;48.34;101474.97;2115418;28;1847;-31
2021/03/25 03:48:59;;;;;;;;;;;;;;;20.93;48.31;101481.84;2115401;28;1318;-32
2021/03/25 03:50:00;;;;;;;;;;;;;;;20.94;48.14;101480.66;2115379;28;1552;-32
2021/03/25 03:51:00;;;;;;;;;;;;;;;20.93;48.22;101484.69;2115622;28;1772;-32
2021/03/25 03:52:01;;;;;;;;;;;;;;;20.93;48.30;101481.00;2111267;28;2129;-34
2021/03/25 03:53:02;;;;;;;;;;;;;;;20.93;48.38;101475.31;2115415;28;1502;-30
2021/03/25 03:54:03;;;;;;;;;;;;;;;20.91;48.28;101476.47;2115556;28;1126;-32
2021/03/25 03:55:04;;;;;;;;;;;;;;;20.92;48.17;101482.97;2115198;28;1185;-33
2021/03/25 03:56:04;;;;;;;;;;;;;;;20.92;48.25;101477.28;2115574;28;1639;-35
2021/03/25 03:57:05;;;;;;;;;;;;;;;20.91;48.21;101470.78;2110755;28;2143;-32
2021/03/25 03:58:06;;;;;;;;;;;;;;;20.93;48.35;101475.31;2114711;28;1548;-35
2021/03/25 03:59:06;;;;;;;;;;;;;;;20.91;48.23;101469.94;2115160;28;1985;-34
2021/03/25 04:00:07;;;;;;;;;;;;;;;20.91;48.25;101476.47;2115439;28;1207;-33
2021/03/25 04:01:08;;;;;;;;;;;;;;;20.91;48.38;101473.63;2115122;28;1280;-34
2021/03/25 04:02:09;;;;;;;;;;;;;;;20.91;48.19;101482.16;2113199;28;2337;-33
2021/03/25 04:03:10;;;;;;;;;;;;;;;20.91;48.32;101472.78;2115507;28;1122;-34
2021/03/25 04:04:12;;;;;;;;;;;;;;;20.91;48.14;101479.31;2114708;28;1537;-34
2021/03/25 04:05:13;;;;;;;;;;;;;;;20.91;48.27;101476.47;2115159;28;1244;-35
2021/03/25 04:06:14;;;;;;;;;;;;;;;20.89;48.27;101478.81;2109430;28;1546;-36
2021/03/25 04:07:15;;;;;;;;;;;;;;;20.91;48.27;101482.16;2110318;28;2215;-30
2021/03/25 04:08:15;;;;;;;;;;;;;;;20.91;48.19;101481.31;2108776;28;1771;-32
2021/03/25 04:09:16;;;;;;;;;;;;;;;20.91;48.04;101478.47;2113201;28;3323;-33
2021/03/25 04:10:17;;;;;;;;;;;;;;;20.91;48.08;101475.63;2115219;28;1621;-31
2021/03/25 04:11:18;;;;;;;;;;;;;;;20.90;48.20;101477.66;2115609;28;1094;-34
2021/03/25 04:12:18;;;;;;;;;;;;;;;20.91;48.21;101476.47;2111426;28;2182;-37
2021/03/25 04:13:19;;;;;;;;;;;;;;;20.91;48.07;101476.47;2107912;28;2463;-34
2021/03/25 04:14:20;;;;;;;;;;;;;;;20.92;48.27;101482.97;2115287;28;1665;-35
2021/03/25 04:15:21;;;;;;;;;;;;;;;20.91;48.29;101479.31;2111382;28;1882;-30
2021/03/25 04:16:21;;;;;;;;;;;;;;;20.91;48.26;101481.31;2115026;28;1149;-29
2021/03/25 04:17:22;;;;;;;;;;;;;;;20.91;48.14;101487.84;2113621;28;2253;-35
2021/03/25 04:18:23;;;;;;;;;;;;;;;20.90;48.26;101482.50;2114927;28;1643;-32
2021/03/25 04:19:24;;;;;;;;;;;;;;;20.91;48.15;101478.47;2115488;28;1961;-30
2021/03/25 04:20:25;;;;;;;;;;;;;;;20.89;48.20;101478.81;2114935;28;1495;-32
2021/03/25 04:21:25;;;;;;;;;;;;;;;20.90;48.06;101482.50;2115602;28;1138;-36
2021/03/25 04:22:26;;;;;;;;;;;;;;;20.90;48.25;101482.50;2113329;28;2335;-33
2021/03/25 04:23:27;;;;;;;;;;;;;;;20.89;48.27;101475.13;2115492;28;1695;-33
2021/03/25 04:24:28;;;;;;;;;;;;;;;20.89;48.29;101481.66;2115155;28;1362;-30
2021/03/25 04:25:28;;;;;;;;;;;;;;;20.89;48.08;101481.66;2115597;28;1227;-32
2021/03/25 04:26:29;;;;;;;;;;;;;;;20.90;48.17;101479.66;2114840;28;1275;-34
2021/03/25 04:27:30;;;;;;;;;;;;;;;20.91;48.28;101484.16;2112853;28;2212;-32
2021/03/25 04:28:31;;;;;;;;;;;;;;;20.91;48.24;101475.63;2115198;28;1789;-31
2021/03/25 04:29:32;;;;;;;;;;;;;;;20.90;48.12;101483.34;2114605;28;1123;-30
2021/03/25 04:30:33;;;;;;;;;;;;;;;20.89;48.17;101477.97;2108870;28;2240;-34
2021/03/25 04:31:33;;;;;;;;;;;;;;;20.88;48.21;101482.81;2115192;28;1409;-34
2021/03/25 04:32:34;;;;;;;;;;;;;;;20.88;48.09;101479.97;2108967;28;1699;-33
2021/03/25 04:33:35;;;;;;;;;;;;;;;20.89;48.22;101480.81;2115315;28;1373;-34
2021/03/25 04:34:36;;;;;;;;;;;;;;;20.88;48.18;101477.13;2114930;28;1440;-31
2021/03/25 04:35:37;;;;;;;;;;;;;;;20.89;48.27;101480.81;2109031;28;1955;-31
2021/03/25 04:36:38;;;;;;;;;;;;;;;20.89;48.22;101477.97;2114839;28;2751;-34
2021/03/25 04:37:38;;;;;;;;;;;;;;;20.89;48.34;101484.50;2109198;28;2109;-32
2021/03/25 04:38:39;;;;;;;;;;;;;;;20.88;48.05;101488.50;2114878;28;1345;-32
2021/03/25 04:39:40;;;;;;;;;;;;;;;20.88;48.25;101477.13;2115052;28;1921;-31
2021/03/25 04:40:42;;;;;;;;;;;;;;;20.88;48.28;101488.50;2109225;28;2085;-33
2021/03/25 04:41:43;;;;;;;;;;;;;;;20.88;48.24;101493.38;2114751;28;1241;-31
2021/03/25 04:42:43;;;;;;;;;;;;;;;20.88;48.27;101476.31;2115052;28;1800;-31
2021/03/25 04:43:44;;;;;;;;;;;;;;;20.88;48.24;101479.97;2115040;28;1220;-35
2021/03/25 04:44:45;;;;;;;;;;;;;;;20.89;48.21;101489.34;2115123;28;1386;-37
2021/03/25 04:45:46;;;;;;;;;;;;;;;20.88;48.22;101479.97;2109916;28;2191;-34
2021/03/25 04:46:46;;;;;;;;;;;;;;;20.88;48.16;101485.69;2115234;28;1906;-32
2021/03/25 04:47:47;;;;;;;;;;;;;;;20.87;48.11;101492.53;2112445;28;2100;-28
2021/03/25 04:48:48;;;;;;;;;;;;;;;20.86;48.20;101485.16;2114875;28;1145;-31
2021/03/25 04:49:49;;;;;;;;;;;;;;;20.86;48.26;101488.00;2114350;28;1576;-32
2021/03/25 04:50:50;;;;;;;;;;;;;;;20.87;48.27;101486.03;2112656;28;2180;-34
2021/03/25 04:51:50;;;;;;;;;;;;;;;20.87;48.25;101494.56;2114604;28;1176;-33
2021/03/25 04:52:51;;;;;;;;;;;;;;;20.87;48.32;101488.88;2115554;28;1255;-32
2021/03/25 04:53:52;;;;;;;;;;;;;;;20.87;48.14;101486.84;2114794;28;1141;-36
2021/03/25 04:54:53;;;;;;;;;;;;;;;20.87;48.11;101491.72;2112298;28;2083;-32
2021/03/25 04:55:53;;;;;;;;;;;;;;;20.86;48.30;101488.00;2110190;28;2283;-33
2021/03/25 04:56:54;;;;;;;;;;;;;;;20.86;48.06;101485.16;2115391;28;1259;-35
2021/03/25 04:57:55;;;;;;;;;;;;;;;20.86;48.15;101488.00;2111250;28;1685;-34
2021/03/25 04:58:56;;;;;;;;;;;;;;;20.86;48.07;101487.19;2114237;28;1140;-31
2021/03/25 04:59:56;;;;;;;;;;;;;;;20.85;48.10;101492.03;2115078;28;1914;-31
2021/03/25 05:00:57;;;;;;;;;;;;;;;20.85;48.09;101485.53;2115107;28;1418;-32
2021/03/25 05:01:58;;;;;;;;;;;;;;;20.85;48.26;101483.50;2114716;28;1061;-31
2021/03/25 05:02:59;;;;;;;;;;;;;;;20.85;48.15;101483.50;2111674;28;2185;-35
2021/03/25 05:04:00;;;;;;;;;;;;;;;20.85;48.26;101489.19;2113792;28;1583;-30
2021/03/25 05:05:01;;;;;;;;;;;;;;;20.86;48.06;101484.34;2114685;28;1182;-31
2021/03/25 05:06:02;;;;;;;;;;;;;;;20.86;48.28;101490.03;2112441;28;1324;-31
2021/03/25 05:07:02;;;;;;;;;;;;;;;20.86;48.25;101487.19;2113602;28;1174;-31
2021/03/25 05:08:03;;;;;;;;;;;;;;;20.85;48.20;101480.66;2112043;28;2148;-32
2021/03/25 05:09:04;;;;;;;;;;;;;;;20.85;48.28;101483.50;2112009;28;3412;-30
2021/03/25 05:10:05;;;;;;;;;;;;;;;20.85;48.22;101480.66;2113217;28;983;-33
2021/03/25 05:11:05;;;;;;;;;;;;;;;20.85;48.19;101483.50;2121421;28;1533;-34
2021/03/25 05:12:06;;;;;;;;;;;;;;;20.86;48.17;101490.03;2113943;28;1967;-36
2021/03/25 05:13:07;;;;;;;;;;;;;;;20.85;48.17;101483.50;2103139;28;2154;-32
2021/03/25 05:14:08;;;;;;;;;;;;;;;20.85;48.31;101485.53;2112752;28;1598;-35
2021/03/25 05:15:08;;;;;;;;;;;;;;;20.85;48.32;101486.34;2114852;28;1401;-31
2021/03/25 05:16:09;;;;;;;;;;;;;;;20.85;48.36;101482.69;2115429;28;1122;-32
2021/03/25 05:17:11;;;;;;;;;;;;;;;20.85;48.33;101491.22;2113657;28;2040;-32